sensor_id;sensor_type;location;lat;lon;timestamp;temperature;humidity
2577;DHT22;1298;51.252;6.802;2022-07-15T00:01:06;16.50;99.90
2577;DHT22;1298;51.252;6.802;2022-07-15T00:03:51;16.50;99.90
2577;DHT22;1298;51.252;6.802;2022-07-15T00:06:37;16.40;99.90
2577;DHT22;1298;51.252;6.802;2022-07-15T00:09:22;16.30;99.90
2577;DHT22;1298;51.252;6.802;2022-07-15T00:12:29;16.30;99.90
2577;DHT22;1298;51.252;6.802;2022-07-15T00:15:14;16.30;99.90
2577;DHT22;1298;51.252;6.802;2022-07-15T00:18:01;16.20;99.90
2577;DHT22;1298;51.252;6.802;2022-07-15T00:20:47;16.20;99.90
2577;DHT22;1298;51.252;6.802;2022-07-15T00:23:33;16.30;99.90
2577;DHT22;1298;51.252;6.802;2022-07-15T00:26:18;16.30;99.90
2577;DHT22;1298;51.252;6.802;2022-07-15T00:29:05;16.30;99.90
2577;DHT22;1298;51.252;6.802;2022-07-15T00:31:52;16.30;99.90
2577;DHT22;1298;51.252;6.802;2022-07-15T00:34:37;16.20;99.90
2577;DHT22;1298;51.252;6.802;2022-07-15T00:37:23;16.10;99.90
2577;DHT22;1298;51.252;6.802;2022-07-15T00:40:09;16.10;99.90
2577;DHT22;1298;51.252;6.802;2022-07-15T00:42:55;16.00;99.90
2577;DHT22;1298;51.252;6.802;2022-07-15T00:45:42;15.90;99.90
2577;DHT22;1298;51.252;6.802;2022-07-15T00:48:28;15.90;99.90
2577;DHT22;1298;51.252;6.802;2022-07-15T00:51:14;15.80;99.90
2577;DHT22;1298;51.252;6.802;2022-07-15T00:53:59;15.80;99.90
2577;DHT22;1298;51.252;6.802;2022-07-15T00:56:48;15.80;99.90
2577;DHT22;1298;51.252;6.802;2022-07-15T00:59:34;15.80;99.90
2577;DHT22;1298;51.252;6.802;2022-07-15T01:02:21;15.80;99.90
2577;DHT22;1298;51.252;6.802;2022-07-15T01:05:08;15.80;99.90
2577;DHT22;1298;51.252;6.802;2022-07-15T01:07:54;15.70;99.90
2577;DHT22;1298;51.252;6.802;2022-07-15T01:10:40;15.70;99.90
2577;DHT22;1298;51.252;6.802;2022-07-15T01:13:26;15.70;99.90
2577;DHT22;1298;51.252;6.802;2022-07-15T01:16:12;15.80;99.90
2577;DHT22;1298;51.252;6.802;2022-07-15T01:19:00;15.80;99.90
2577;DHT22;1298;51.252;6.802;2022-07-15T01:21:46;15.70;99.90
2577;DHT22;1298;51.252;6.802;2022-07-15T01:24:32;15.70;99.90
2577;DHT22;1298;51.252;6.802;2022-07-15T01:27:18;15.70;99.90
2577;DHT22;1298;51.252;6.802;2022-07-15T01:30:05;15.70;99.90
2577;DHT22;1298;51.252;6.802;2022-07-15T01:32:50;15.70;99.90
2577;DHT22;1298;51.252;6.802;2022-07-15T01:35:36;15.80;99.90
2577;DHT22;1298;51.252;6.802;2022-07-15T01:38:23;15.80;99.90
2577;DHT22;1298;51.252;6.802;2022-07-15T01:41:08;15.80;99.90
2577;DHT22;1298;51.252;6.802;2022-07-15T01:43:54;15.90;99.90
2577;DHT22;1298;51.252;6.802;2022-07-15T01:46:39;15.90;99.90
2577;DHT22;1298;51.252;6.802;2022-07-15T01:49:25;15.90;99.90
2577;DHT22;1298;51.252;6.802;2022-07-15T01:52:09;15.90;99.90
2577;DHT22;1298;51.252;6.802;2022-07-15T01:54:56;15.90;99.90
2577;DHT22;1298;51.252;6.802;2022-07-15T01:57:42;15.90;99.90
2577;DHT22;1298;51.252;6.802;2022-07-15T02:00:28;15.90;99.90
2577;DHT22;1298;51.252;6.802;2022-07-15T02:03:13;16.10;99.90
2577;DHT22;1298;51.252;6.802;2022-07-15T02:05:59;16.10;99.90
2577;DHT22;1298;51.252;6.802;2022-07-15T02:08:45;16.20;99.90
2577;DHT22;1298;51.252;6.802;2022-07-15T02:11:31;16.00;99.90
2577;DHT22;1298;51.252;6.802;2022-07-15T02:14:17;16.00;99.90
2577;DHT22;1298;51.252;6.802;2022-07-15T02:17:03;15.90;99.90
2577;DHT22;1298;51.252;6.802;2022-07-15T02:19:48;16.00;99.90
2577;DHT22;1298;51.252;6.802;2022-07-15T02:22:34;16.00;99.90
2577;DHT22;1298;51.252;6.802;2022-07-15T02:25:21;16.10;99.90
2577;DHT22;1298;51.252;6.802;2022-07-15T02:28:09;16.10;99.90
2577;DHT22;1298;51.252;6.802;2022-07-15T02:30:54;16.00;99.90
2577;DHT22;1298;51.252;6.802;2022-07-15T02:33:40;16.00;99.90
2577;DHT22;1298;51.252;6.802;2022-07-15T02:36:26;16.00;99.90
2577;DHT22;1298;51.252;6.802;2022-07-15T02:39:12;15.90;99.90
2577;DHT22;1298;51.252;6.802;2022-07-15T02:41:57;15.80;99.90
2577;DHT22;1298;51.252;6.802;2022-07-15T02:44:44;15.80;99.90
2577;DHT22;1298;51.252;6.802;2022-07-15T02:47:29;15.80;99.90
2577;DHT22;1298;51.252;6.802;2022-07-15T02:50:16;15.80;99.90
2577;DHT22;1298;51.252;6.802;2022-07-15T02:53:03;15.70;99.90
2577;DHT22;1298;51.252;6.802;2022-07-15T02:55:48;15.70;99.90
2577;DHT22;1298;51.252;6.802;2022-07-15T02:58:34;15.60;99.90
2577;DHT22;1298;51.252;6.802;2022-07-15T03:01:21;15.50;99.90
2577;DHT22;1298;51.252;6.802;2022-07-15T03:04:06;15.50;99.90
2577;DHT22;1298;51.252;6.802;2022-07-15T03:06:52;15.60;99.90
2577;DHT22;1298;51.252;6.802;2022-07-15T03:09:38;15.60;99.90
2577;DHT22;1298;51.252;6.802;2022-07-15T03:12:24;15.60;99.90
2577;DHT22;1298;51.252;6.802;2022-07-15T03:15:09;15.60;99.90
2577;DHT22;1298;51.252;6.802;2022-07-15T03:17:57;15.50;99.90
2577;DHT22;1298;51.252;6.802;2022-07-15T03:20:42;15.40;99.90
2577;DHT22;1298;51.252;6.802;2022-07-15T03:23:30;15.20;99.90
2577;DHT22;1298;51.252;6.802;2022-07-15T03:26:15;15.10;99.90
2577;DHT22;1298;51.252;6.802;2022-07-15T03:29:01;15.00;99.90
2577;DHT22;1298;51.252;6.802;2022-07-15T03:31:46;14.80;99.90
2577;DHT22;1298;51.252;6.802;2022-07-15T03:34:33;14.80;99.90
2577;DHT22;1298;51.252;6.802;2022-07-15T03:37:18;14.70;99.90
2577;DHT22;1298;51.252;6.802;2022-07-15T03:40:05;14.70;99.90
2577;DHT22;1298;51.252;6.802;2022-07-15T03:42:51;14.60;99.90
2577;DHT22;1298;51.252;6.802;2022-07-15T03:45:36;14.60;99.90
2577;DHT22;1298;51.252;6.802;2022-07-15T03:48:22;14.50;99.90
2577;DHT22;1298;51.252;6.802;2022-07-15T03:51:08;14.50;99.90
2577;DHT22;1298;51.252;6.802;2022-07-15T03:53:54;14.50;99.90
2577;DHT22;1298;51.252;6.802;2022-07-15T03:56:40;14.50;99.90
2577;DHT22;1298;51.252;6.802;2022-07-15T03:59:25;14.50;99.90
2577;DHT22;1298;51.252;6.802;2022-07-15T04:02:11;14.50;99.90
2577;DHT22;1298;51.252;6.802;2022-07-15T04:04:56;14.50;99.90
2577;DHT22;1298;51.252;6.802;2022-07-15T04:07:43;14.50;99.90
2577;DHT22;1298;51.252;6.802;2022-07-15T04:10:28;14.50;99.90
2577;DHT22;1298;51.252;6.802;2022-07-15T04:13:14;14.50;99.90
2577;DHT22;1298;51.252;6.802;2022-07-15T04:16:03;14.50;99.90
2577;DHT22;1298;51.252;6.802;2022-07-15T04:18:49;14.50;99.90
2577;DHT22;1298;51.252;6.802;2022-07-15T04:21:35;14.50;99.90
2577;DHT22;1298;51.252;6.802;2022-07-15T04:24:22;14.40;99.90
2577;DHT22;1298;51.252;6.802;2022-07-15T04:27:08;14.40;99.90
2577;DHT22;1298;51.252;6.802;2022-07-15T04:29:53;14.40;99.90
2577;DHT22;1298;51.252;6.802;2022-07-15T04:32:40;14.40;99.90
2577;DHT22;1298;51.252;6.802;2022-07-15T04:35:26;14.50;99.90
2577;DHT22;1298;51.252;6.802;2022-07-15T04:38:11;14.60;99.90
2577;DHT22;1298;51.252;6.802;2022-07-15T04:40:58;14.60;99.90
2577;DHT22;1298;51.252;6.802;2022-07-15T04:43:44;14.60;99.90
2577;DHT22;1298;51.252;6.802;2022-07-15T04:46:29;14.70;99.90
2577;DHT22;1298;51.252;6.802;2022-07-15T04:49:15;14.70;99.90
2577;DHT22;1298;51.252;6.802;2022-07-15T04:52:18;14.80;99.90
2577;DHT22;1298;51.252;6.802;2022-07-15T04:55:04;15.00;99.90
2577;DHT22;1298;51.252;6.802;2022-07-15T04:57:51;15.10;99.90
2577;DHT22;1298;51.252;6.802;2022-07-15T05:00:36;15.20;99.90
2577;DHT22;1298;51.252;6.802;2022-07-15T05:03:22;15.10;99.90
2577;DHT22;1298;51.252;6.802;2022-07-15T05:06:07;15.20;99.90
2577;DHT22;1298;51.252;6.802;2022-07-15T05:08:53;15.40;99.90
2577;DHT22;1298;51.252;6.802;2022-07-15T05:11:38;15.60;99.90
2577;DHT22;1298;51.252;6.802;2022-07-15T05:14:25;15.60;99.90
2577;DHT22;1298;51.252;6.802;2022-07-15T05:17:11;15.70;99.90
2577;DHT22;1298;51.252;6.802;2022-07-15T05:19:56;15.70;99.90
2577;DHT22;1298;51.252;6.802;2022-07-15T05:22:42;15.60;99.90
2577;DHT22;1298;51.252;6.802;2022-07-15T05:25:28;15.40;99.90
2577;DHT22;1298;51.252;6.802;2022-07-15T05:28:13;15.40;99.90
2577;DHT22;1298;51.252;6.802;2022-07-15T05:31:00;15.40;99.90
2577;DHT22;1298;51.252;6.802;2022-07-15T05:33:46;15.40;99.90
2577;DHT22;1298;51.252;6.802;2022-07-15T05:36:31;15.60;99.90
2577;DHT22;1298;51.252;6.802;2022-07-15T05:39:17;15.70;99.90
2577;DHT22;1298;51.252;6.802;2022-07-15T05:42:03;15.90;99.90
2577;DHT22;1298;51.252;6.802;2022-07-15T05:44:49;15.90;99.90
2577;DHT22;1298;51.252;6.802;2022-07-15T05:47:36;15.90;99.90
2577;DHT22;1298;51.252;6.802;2022-07-15T05:50:22;16.10;99.90
2577;DHT22;1298;51.252;6.802;2022-07-15T05:53:07;16.10;99.90
2577;DHT22;1298;51.252;6.802;2022-07-15T05:55:53;16.10;99.90
2577;DHT22;1298;51.252;6.802;2022-07-15T05:58:39;16.00;99.90
2577;DHT22;1298;51.252;6.802;2022-07-15T06:01:24;16.00;99.90
2577;DHT22;1298;51.252;6.802;2022-07-15T06:04:11;16.10;99.90
2577;DHT22;1298;51.252;6.802;2022-07-15T06:06:58;16.10;99.90
2577;DHT22;1298;51.252;6.802;2022-07-15T06:09:43;16.10;99.90
2577;DHT22;1298;51.252;6.802;2022-07-15T06:12:28;16.20;99.90
2577;DHT22;1298;51.252;6.802;2022-07-15T06:15:15;16.20;99.90
2577;DHT22;1298;51.252;6.802;2022-07-15T06:18:02;16.30;99.90
2577;DHT22;1298;51.252;6.802;2022-07-15T06:20:49;16.30;99.90
2577;DHT22;1298;51.252;6.802;2022-07-15T06:23:34;16.40;99.90
2577;DHT22;1298;51.252;6.802;2022-07-15T06:26:20;16.50;99.90
2577;DHT22;1298;51.252;6.802;2022-07-15T06:29:05;16.60;99.90
2577;DHT22;1298;51.252;6.802;2022-07-15T06:31:51;16.70;99.90
2577;DHT22;1298;51.252;6.802;2022-07-15T06:34:36;16.60;99.90
2577;DHT22;1298;51.252;6.802;2022-07-15T06:37:23;16.70;99.90
2577;DHT22;1298;51.252;6.802;2022-07-15T06:40:09;16.70;99.90
2577;DHT22;1298;51.252;6.802;2022-07-15T06:42:55;16.60;99.90
2577;DHT22;1298;51.252;6.802;2022-07-15T06:45:40;16.60;99.90
2577;DHT22;1298;51.252;6.802;2022-07-15T06:48:26;16.70;99.90
2577;DHT22;1298;51.252;6.802;2022-07-15T06:51:11;16.70;99.90
2577;DHT22;1298;51.252;6.802;2022-07-15T06:53:58;16.70;99.90
2577;DHT22;1298;51.252;6.802;2022-07-15T06:56:44;16.80;99.90
2577;DHT22;1298;51.252;6.802;2022-07-15T06:59:29;17.10;99.90
2577;DHT22;1298;51.252;6.802;2022-07-15T07:02:15;17.30;99.90
2577;DHT22;1298;51.252;6.802;2022-07-15T07:05:00;17.50;99.90
2577;DHT22;1298;51.252;6.802;2022-07-15T07:07:46;17.80;99.90
2577;DHT22;1298;51.252;6.802;2022-07-15T07:10:33;18.00;99.90
2577;DHT22;1298;51.252;6.802;2022-07-15T07:13:19;18.00;99.90
2577;DHT22;1298;51.252;6.802;2022-07-15T07:16:05;17.90;99.90
2577;DHT22;1298;51.252;6.802;2022-07-15T07:18:51;18.00;99.90
2577;DHT22;1298;51.252;6.802;2022-07-15T07:21:37;18.10;99.90
2577;DHT22;1298;51.252;6.802;2022-07-15T07:24:22;18.30;99.90
2577;DHT22;1298;51.252;6.802;2022-07-15T07:27:09;18.20;99.90
2577;DHT22;1298;51.252;6.802;2022-07-15T07:29:55;17.70;99.90
2577;DHT22;1298;51.252;6.802;2022-07-15T07:32:40;17.40;99.90
2577;DHT22;1298;51.252;6.802;2022-07-15T07:35:26;17.20;99.90
2577;DHT22;1298;51.252;6.802;2022-07-15T07:38:11;16.90;99.90
2577;DHT22;1298;51.252;6.802;2022-07-15T07:40:57;16.90;99.90
2577;DHT22;1298;51.252;6.802;2022-07-15T07:43:44;17.10;99.90
2577;DHT22;1298;51.252;6.802;2022-07-15T07:46:30;17.20;99.90
2577;DHT22;1298;51.252;6.802;2022-07-15T07:49:15;17.30;99.90
2577;DHT22;1298;51.252;6.802;2022-07-15T07:52:01;17.40;99.90
2577;DHT22;1298;51.252;6.802;2022-07-15T07:54:46;17.50;99.90
2577;DHT22;1298;51.252;6.802;2022-07-15T07:57:32;17.80;99.90
2577;DHT22;1298;51.252;6.802;2022-07-15T08:00:19;18.00;99.90
2577;DHT22;1298;51.252;6.802;2022-07-15T08:03:05;18.20;99.90
2577;DHT22;1298;51.252;6.802;2022-07-15T08:05:51;18.30;99.90
2577;DHT22;1298;51.252;6.802;2022-07-15T08:08:37;18.30;99.90
2577;DHT22;1298;51.252;6.802;2022-07-15T08:11:22;18.30;99.90
2577;DHT22;1298;51.252;6.802;2022-07-15T08:14:08;18.30;99.90
2577;DHT22;1298;51.252;6.802;2022-07-15T08:16:55;18.50;99.90
2577;DHT22;1298;51.252;6.802;2022-07-15T08:19:41;18.70;99.90
2577;DHT22;1298;51.252;6.802;2022-07-15T08:22:26;18.80;99.90
2577;DHT22;1298;51.252;6.802;2022-07-15T08:25:12;19.00;99.90
2577;DHT22;1298;51.252;6.802;2022-07-15T08:27:57;19.20;99.90
2577;DHT22;1298;51.252;6.802;2022-07-15T08:30:44;19.20;99.90
2577;DHT22;1298;51.252;6.802;2022-07-15T08:33:31;18.70;99.90
2577;DHT22;1298;51.252;6.802;2022-07-15T08:36:17;18.40;99.90
2577;DHT22;1298;51.252;6.802;2022-07-15T08:39:02;17.90;99.90
2577;DHT22;1298;51.252;6.802;2022-07-15T08:41:48;18.00;99.90
2577;DHT22;1298;51.252;6.802;2022-07-15T08:44:35;18.20;99.90
2577;DHT22;1298;51.252;6.802;2022-07-15T08:47:22;18.40;99.90
2577;DHT22;1298;51.252;6.802;2022-07-15T08:50:12;18.60;99.90
2577;DHT22;1298;51.252;6.802;2022-07-15T08:52:58;18.60;99.90
2577;DHT22;1298;51.252;6.802;2022-07-15T08:55:46;18.80;99.90
2577;DHT22;1298;51.252;6.802;2022-07-15T08:58:34;19.20;99.90
2577;DHT22;1298;51.252;6.802;2022-07-15T09:01:20;19.20;99.90
2577;DHT22;1298;51.252;6.802;2022-07-15T09:04:06;19.50;99.90
2577;DHT22;1298;51.252;6.802;2022-07-15T09:06:53;19.50;99.90
2577;DHT22;1298;51.252;6.802;2022-07-15T09:09:38;19.40;99.90
2577;DHT22;1298;51.252;6.802;2022-07-15T09:12:24;19.20;99.90
2577;DHT22;1298;51.252;6.802;2022-07-15T09:15:28;19.20;99.90
2577;DHT22;1298;51.252;6.802;2022-07-15T09:18:16;19.20;99.90
2577;DHT22;1298;51.252;6.802;2022-07-15T09:21:01;19.40;99.90
2577;DHT22;1298;51.252;6.802;2022-07-15T09:23:49;19.30;99.90
2577;DHT22;1298;51.252;6.802;2022-07-15T09:26:35;19.30;99.90
2577;DHT22;1298;51.252;6.802;2022-07-15T09:29:35;19.10;99.90
2577;DHT22;1298;51.252;6.802;2022-07-15T09:32:38;19.00;99.90
2577;DHT22;1298;51.252;6.802;2022-07-15T09:35:41;19.30;99.90
2577;DHT22;1298;51.252;6.802;2022-07-15T09:38:48;19.70;99.90
2577;DHT22;1298;51.252;6.802;2022-07-15T09:41:35;20.30;99.90
2577;DHT22;1298;51.252;6.802;2022-07-15T09:44:21;20.60;99.90
2577;DHT22;1298;51.252;6.802;2022-07-15T09:47:16;20.60;99.90
2577;DHT22;1298;51.252;6.802;2022-07-15T09:50:02;20.80;99.90
2577;DHT22;1298;51.252;6.802;2022-07-15T09:52:48;20.50;99.90
2577;DHT22;1298;51.252;6.802;2022-07-15T09:55:35;19.90;99.90
2577;DHT22;1298;51.252;6.802;2022-07-15T09:58:21;19.90;99.90
2577;DHT22;1298;51.252;6.802;2022-07-15T10:01:07;19.80;99.90
2577;DHT22;1298;51.252;6.802;2022-07-15T10:03:53;19.70;99.90
2577;DHT22;1298;51.252;6.802;2022-07-15T10:06:38;19.60;99.90
2577;DHT22;1298;51.252;6.802;2022-07-15T10:09:26;19.50;99.90
2577;DHT22;1298;51.252;6.802;2022-07-15T10:12:16;19.70;99.90
2577;DHT22;1298;51.252;6.802;2022-07-15T10:15:10;19.90;99.90
2577;DHT22;1298;51.252;6.802;2022-07-15T10:18:07;20.20;99.90
2577;DHT22;1298;51.252;6.802;2022-07-15T10:21:03;20.60;99.90
2577;DHT22;1298;51.252;6.802;2022-07-15T10:24:08;20.80;99.90
2577;DHT22;1298;51.252;6.802;2022-07-15T10:27:13;20.80;99.90
2577;DHT22;1298;51.252;6.802;2022-07-15T10:30:06;21.10;99.90
2577;DHT22;1298;51.252;6.802;2022-07-15T10:33:12;20.90;99.90
2577;DHT22;1298;51.252;6.802;2022-07-15T10:36:04;20.40;99.90
2577;DHT22;1298;51.252;6.802;2022-07-15T10:39:02;20.40;99.90
2577;DHT22;1298;51.252;6.802;2022-07-15T10:41:51;20.80;99.90
2577;DHT22;1298;51.252;6.802;2022-07-15T10:44:49;21.00;99.90
2577;DHT22;1298;51.252;6.802;2022-07-15T10:47:36;21.10;99.90
2577;DHT22;1298;51.252;6.802;2022-07-15T10:50:35;21.00;99.90
2577;DHT22;1298;51.252;6.802;2022-07-15T10:53:23;20.70;99.90
2577;DHT22;1298;51.252;6.802;2022-07-15T10:56:28;20.50;99.90
2577;DHT22;1298;51.252;6.802;2022-07-15T10:59:16;20.40;99.90
2577;DHT22;1298;51.252;6.802;2022-07-15T11:02:15;20.30;99.90
2577;DHT22;1298;51.252;6.802;2022-07-15T11:05:19;20.10;99.90
2577;DHT22;1298;51.252;6.802;2022-07-15T11:11:51;20.80;99.90
2577;DHT22;1298;51.252;6.802;2022-07-15T11:14:45;21.20;99.90
2577;DHT22;1298;51.252;6.802;2022-07-15T11:17:38;21.20;99.90
2577;DHT22;1298;51.252;6.802;2022-07-15T11:20:28;21.10;99.90
2577;DHT22;1298;51.252;6.802;2022-07-15T11:23:15;20.90;99.90
2577;DHT22;1298;51.252;6.802;2022-07-15T11:26:01;20.80;99.90
2577;DHT22;1298;51.252;6.802;2022-07-15T11:28:48;20.90;99.90
2577;DHT22;1298;51.252;6.802;2022-07-15T11:31:39;21.30;99.90
2577;DHT22;1298;51.252;6.802;2022-07-15T11:34:36;21.50;99.90
2577;DHT22;1298;51.252;6.802;2022-07-15T11:37:26;21.40;99.90
2577;DHT22;1298;51.252;6.802;2022-07-15T11:40:14;21.30;99.90
2577;DHT22;1298;51.252;6.802;2022-07-15T11:43:21;21.20;99.90
2577;DHT22;1298;51.252;6.802;2022-07-15T11:46:24;21.30;99.90
2577;DHT22;1298;51.252;6.802;2022-07-15T11:49:10;21.00;99.90
2577;DHT22;1298;51.252;6.802;2022-07-15T11:51:56;21.20;99.90
2577;DHT22;1298;51.252;6.802;2022-07-15T11:54:43;21.50;99.90
2577;DHT22;1298;51.252;6.802;2022-07-15T11:57:32;21.60;99.90
2577;DHT22;1298;51.252;6.802;2022-07-15T12:00:28;21.50;99.90
2577;DHT22;1298;51.252;6.802;2022-07-15T12:03:14;21.40;99.90
2577;DHT22;1298;51.252;6.802;2022-07-15T12:06:06;21.70;99.90
2577;DHT22;1298;51.252;6.802;2022-07-15T12:08:53;21.70;99.90
2577;DHT22;1298;51.252;6.802;2022-07-15T12:11:41;21.80;99.90
2577;DHT22;1298;51.252;6.802;2022-07-15T12:14:26;22.10;99.90
2577;DHT22;1298;51.252;6.802;2022-07-15T12:17:11;22.20;99.90
2577;DHT22;1298;51.252;6.802;2022-07-15T12:19:57;21.90;99.90
2577;DHT22;1298;51.252;6.802;2022-07-15T12:23:02;22.00;99.90
2577;DHT22;1298;51.252;6.802;2022-07-15T12:25:49;22.00;99.90
2577;DHT22;1298;51.252;6.802;2022-07-15T12:28:53;21.90;99.90
2577;DHT22;1298;51.252;6.802;2022-07-15T12:31:40;22.00;99.90
2577;DHT22;1298;51.252;6.802;2022-07-15T12:34:49;22.30;99.90
2577;DHT22;1298;51.252;6.802;2022-07-15T12:37:48;22.00;99.90
2577;DHT22;1298;51.252;6.802;2022-07-15T12:40:35;22.10;99.90
2577;DHT22;1298;51.252;6.802;2022-07-15T12:43:20;22.40;99.90
2577;DHT22;1298;51.252;6.802;2022-07-15T12:46:07;22.70;99.90
2577;DHT22;1298;51.252;6.802;2022-07-15T12:48:52;22.70;99.90
2577;DHT22;1298;51.252;6.802;2022-07-15T12:51:41;22.60;99.90
2577;DHT22;1298;51.252;6.802;2022-07-15T12:54:26;22.70;99.90
2577;DHT22;1298;51.252;6.802;2022-07-15T12:57:24;22.60;99.90
2577;DHT22;1298;51.252;6.802;2022-07-15T13:00:13;22.40;99.90
2577;DHT22;1298;51.252;6.802;2022-07-15T13:03:09;22.20;99.90
2577;DHT22;1298;51.252;6.802;2022-07-15T13:05:55;22.40;99.90
2577;DHT22;1298;51.252;6.802;2022-07-15T13:08:42;22.60;99.90
2577;DHT22;1298;51.252;6.802;2022-07-15T13:11:27;22.80;99.90
2577;DHT22;1298;51.252;6.802;2022-07-15T13:14:13;23.00;99.90
2577;DHT22;1298;51.252;6.802;2022-07-15T13:16:59;22.90;99.90
2577;DHT22;1298;51.252;6.802;2022-07-15T13:19:46;22.70;99.90
2577;DHT22;1298;51.252;6.802;2022-07-15T13:22:32;22.80;99.90
2577;DHT22;1298;51.252;6.802;2022-07-15T13:25:18;23.40;99.90
2577;DHT22;1298;51.252;6.802;2022-07-15T13:28:04;24.50;99.90
2577;DHT22;1298;51.252;6.802;2022-07-15T13:30:50;25.80;99.90
2577;DHT22;1298;51.252;6.802;2022-07-15T13:33:35;26.70;99.90
2577;DHT22;1298;51.252;6.802;2022-07-15T13:36:22;27.10;99.90
2577;DHT22;1298;51.252;6.802;2022-07-15T13:39:08;27.10;99.90
2577;DHT22;1298;51.252;6.802;2022-07-15T13:41:53;25.90;99.90
2577;DHT22;1298;51.252;6.802;2022-07-15T13:44:39;24.90;99.90
2577;DHT22;1298;51.252;6.802;2022-07-15T13:47:24;24.00;99.90
2577;DHT22;1298;51.252;6.802;2022-07-15T13:50:10;23.60;99.90
2577;DHT22;1298;51.252;6.802;2022-07-15T13:53:14;23.40;99.90
2577;DHT22;1298;51.252;6.802;2022-07-15T13:56:00;23.20;99.90
2577;DHT22;1298;51.252;6.802;2022-07-15T13:58:46;23.20;99.90
2577;DHT22;1298;51.252;6.802;2022-07-15T14:01:32;22.90;99.90
2577;DHT22;1298;51.252;6.802;2022-07-15T14:04:18;23.60;99.90
2577;DHT22;1298;51.252;6.802;2022-07-15T14:07:03;25.20;99.90
2577;DHT22;1298;51.252;6.802;2022-07-15T14:09:50;26.50;99.90
2577;DHT22;1298;51.252;6.802;2022-07-15T14:12:36;28.00;99.90
2577;DHT22;1298;51.252;6.802;2022-07-15T14:15:21;29.10;99.90
2577;DHT22;1298;51.252;6.802;2022-07-15T14:18:07;29.00;99.90
2577;DHT22;1298;51.252;6.802;2022-07-15T14:20:52;28.30;99.90
2577;DHT22;1298;51.252;6.802;2022-07-15T14:23:38;27.70;99.90
2577;DHT22;1298;51.252;6.802;2022-07-15T14:26:25;26.60;99.90
2577;DHT22;1298;51.252;6.802;2022-07-15T14:29:10;26.20;99.90
2577;DHT22;1298;51.252;6.802;2022-07-15T14:31:55;25.80;99.90
2577;DHT22;1298;51.252;6.802;2022-07-15T14:34:41;25.30;99.90
2577;DHT22;1298;51.252;6.802;2022-07-15T14:37:27;24.90;99.90
2577;DHT22;1298;51.252;6.802;2022-07-15T14:40:12;23.80;99.90
2577;DHT22;1298;51.252;6.802;2022-07-15T14:42:59;23.70;99.90
2577;DHT22;1298;51.252;6.802;2022-07-15T14:45:45;23.70;99.90
2577;DHT22;1298;51.252;6.802;2022-07-15T14:48:31;23.00;99.90
2577;DHT22;1298;51.252;6.802;2022-07-15T14:51:16;22.50;99.90
2577;DHT22;1298;51.252;6.802;2022-07-15T14:54:02;22.60;99.90
2577;DHT22;1298;51.252;6.802;2022-07-15T14:56:47;23.70;99.90
2577;DHT22;1298;51.252;6.802;2022-07-15T15:02:02;25.10;99.90
2577;DHT22;1298;51.252;6.802;2022-07-15T15:04:48;25.20;99.90
2577;DHT22;1298;51.252;6.802;2022-07-15T15:07:33;24.80;99.90
2577;DHT22;1298;51.252;6.802;2022-07-15T15:10:19;24.20;99.90
2577;DHT22;1298;51.252;6.802;2022-07-15T15:13:05;23.80;99.90
2577;DHT22;1298;51.252;6.802;2022-07-15T15:15:51;24.30;99.90
2577;DHT22;1298;51.252;6.802;2022-07-15T15:18:38;24.30;99.90
2577;DHT22;1298;51.252;6.802;2022-07-15T15:21:23;24.00;99.90
2577;DHT22;1298;51.252;6.802;2022-07-15T15:24:11;24.30;99.90
2577;DHT22;1298;51.252;6.802;2022-07-15T15:26:57;24.50;99.90
2577;DHT22;1298;51.252;6.802;2022-07-15T15:29:43;24.10;99.90
2577;DHT22;1298;51.252;6.802;2022-07-15T15:32:29;23.60;99.90
2577;DHT22;1298;51.252;6.802;2022-07-15T15:35:16;23.20;99.90
2577;DHT22;1298;51.252;6.802;2022-07-15T15:38:01;23.60;99.90
2577;DHT22;1298;51.252;6.802;2022-07-15T15:40:48;24.70;99.90
2577;DHT22;1298;51.252;6.802;2022-07-15T15:43:33;25.70;99.90
2577;DHT22;1298;51.252;6.802;2022-07-15T15:46:19;26.10;99.90
2577;DHT22;1298;51.252;6.802;2022-07-15T15:49:05;25.40;99.90
2577;DHT22;1298;51.252;6.802;2022-07-15T15:51:52;25.30;99.90
2577;DHT22;1298;51.252;6.802;2022-07-15T15:54:37;25.10;99.90
2577;DHT22;1298;51.252;6.802;2022-07-15T15:57:23;25.40;99.90
2577;DHT22;1298;51.252;6.802;2022-07-15T16:00:10;25.70;99.90
2577;DHT22;1298;51.252;6.802;2022-07-15T16:02:57;25.20;99.90
2577;DHT22;1298;51.252;6.802;2022-07-15T16:05:42;24.60;99.90
2577;DHT22;1298;51.252;6.802;2022-07-15T16:08:29;24.40;99.90
2577;DHT22;1298;51.252;6.802;2022-07-15T16:11:15;24.70;99.90
2577;DHT22;1298;51.252;6.802;2022-07-15T16:14:00;24.90;99.90
2577;DHT22;1298;51.252;6.802;2022-07-15T16:16:48;25.30;99.90
2577;DHT22;1298;51.252;6.802;2022-07-15T16:19:33;27.20;99.90
2577;DHT22;1298;51.252;6.802;2022-07-15T16:22:19;29.00;99.90
2577;DHT22;1298;51.252;6.802;2022-07-15T16:25:26;30.20;99.90
2577;DHT22;1298;51.252;6.802;2022-07-15T16:28:15;30.20;99.90
2577;DHT22;1298;51.252;6.802;2022-07-15T16:31:01;30.00;99.90
2577;DHT22;1298;51.252;6.802;2022-07-15T16:33:47;29.00;99.90
2577;DHT22;1298;51.252;6.802;2022-07-15T16:36:39;28.70;99.90
2577;DHT22;1298;51.252;6.802;2022-07-15T16:39:27;28.40;99.90
2577;DHT22;1298;51.252;6.802;2022-07-15T16:42:14;28.50;99.90
2577;DHT22;1298;51.252;6.802;2022-07-15T16:45:03;28.50;99.90
2577;DHT22;1298;51.252;6.802;2022-07-15T16:47:49;28.90;99.90
2577;DHT22;1298;51.252;6.802;2022-07-15T16:50:39;28.50;99.90
2577;DHT22;1298;51.252;6.802;2022-07-15T16:53:24;28.50;99.90
2577;DHT22;1298;51.252;6.802;2022-07-15T16:56:09;28.40;99.90
2577;DHT22;1298;51.252;6.802;2022-07-15T16:58:56;28.10;99.90
2577;DHT22;1298;51.252;6.802;2022-07-15T17:01:42;28.30;99.90
2577;DHT22;1298;51.252;6.802;2022-07-15T17:04:27;28.10;99.90
2577;DHT22;1298;51.252;6.802;2022-07-15T17:07:13;27.70;99.90
2577;DHT22;1298;51.252;6.802;2022-07-15T17:09:59;27.00;99.90
2577;DHT22;1298;51.252;6.802;2022-07-15T17:12:44;26.00;99.90
2577;DHT22;1298;51.252;6.802;2022-07-15T17:15:31;26.30;99.90
2577;DHT22;1298;51.252;6.802;2022-07-15T17:18:19;25.90;99.90
2577;DHT22;1298;51.252;6.802;2022-07-15T17:21:04;26.50;99.90
2577;DHT22;1298;51.252;6.802;2022-07-15T17:23:50;27.20;99.90
2577;DHT22;1298;51.252;6.802;2022-07-15T17:26:36;27.40;99.90
2577;DHT22;1298;51.252;6.802;2022-07-15T17:29:24;27.10;99.90
2577;DHT22;1298;51.252;6.802;2022-07-15T17:32:11;27.30;99.90
2577;DHT22;1298;51.252;6.802;2022-07-15T17:34:57;26.60;99.90
2577;DHT22;1298;51.252;6.802;2022-07-15T17:37:42;26.50;99.90
2577;DHT22;1298;51.252;6.802;2022-07-15T17:40:31;27.10;99.90
2577;DHT22;1298;51.252;6.802;2022-07-15T17:43:17;27.70;99.90
2577;DHT22;1298;51.252;6.802;2022-07-15T17:46:02;28.10;99.90
2577;DHT22;1298;51.252;6.802;2022-07-15T17:48:49;27.50;99.90
2577;DHT22;1298;51.252;6.802;2022-07-15T17:51:35;26.10;99.90
2577;DHT22;1298;51.252;6.802;2022-07-15T17:54:20;25.40;99.90
2577;DHT22;1298;51.252;6.802;2022-07-15T17:57:05;24.70;99.90
2577;DHT22;1298;51.252;6.802;2022-07-15T17:59:51;24.50;99.90
2577;DHT22;1298;51.252;6.802;2022-07-15T18:02:36;24.30;99.90
2577;DHT22;1298;51.252;6.802;2022-07-15T18:05:23;24.30;99.90
2577;DHT22;1298;51.252;6.802;2022-07-15T18:08:10;25.00;99.90
2577;DHT22;1298;51.252;6.802;2022-07-15T18:10:55;25.40;99.90
2577;DHT22;1298;51.252;6.802;2022-07-15T18:13:41;26.10;99.90
2577;DHT22;1298;51.252;6.802;2022-07-15T18:16:27;26.00;99.90
2577;DHT22;1298;51.252;6.802;2022-07-15T18:19:12;25.40;99.90